createdAt,value
2016-09-25T00:00:40.131Z,0
2016-09-25T00:01:40.428Z,0
2016-09-25T00:02:39.506Z,0
2016-09-25T00:03:40.046Z,0
2016-09-25T00:04:40.392Z,0
2016-09-25T00:05:39.992Z,0
2016-09-25T00:06:39.995Z,0
2016-09-25T00:07:39.669Z,0
2016-09-25T00:08:40.002Z,0
2016-09-25T00:09:40.338Z,0
2016-09-25T00:10:39.937Z,0
2016-09-25T00:11:39.584Z,0
2016-09-25T00:12:40.223Z,0
2016-09-25T00:13:40.187Z,0
2016-09-25T00:14:39.894Z,0
2016-09-25T00:15:39.852Z,0
2016-09-25T00:16:39.838Z,0
2016-09-25T00:17:40.146Z,0
2016-09-25T00:18:40.148Z,0
2016-09-25T00:19:39.846Z,0
2016-09-25T00:20:39.787Z,0
2016-09-25T00:21:39.758Z,0
2016-09-25T00:22:39.735Z,0
2016-09-25T00:23:39.717Z,0
2016-09-25T00:24:39.075Z,0
2016-09-25T00:25:39.680Z,0
2016-09-25T00:26:39.680Z,0
2016-09-25T00:27:39.688Z,0
2016-09-25T00:28:39.985Z,0
2016-09-25T00:29:39.318Z,0
2016-09-25T00:30:39.307Z,0
2016-09-25T00:31:39.275Z,0
2016-09-25T00:32:38.968Z,0
2016-09-25T00:33:39.887Z,0
2016-09-25T00:34:39.226Z,0
2016-09-25T00:35:39.859Z,0
2016-09-25T00:36:39.535Z,0
2016-09-25T00:37:39.808Z,0
2016-09-25T00:38:39.505Z,0
2016-09-25T00:39:39.201Z,0
2016-09-25T00:40:39.457Z,0
2016-09-25T00:41:39.744Z,0
2016-09-25T00:42:39.204Z,0
2016-09-25T00:43:39.444Z,0
2016-09-25T00:44:39.428Z,0
2016-09-25T00:45:38.741Z,0
2016-09-25T00:46:39.378Z,0
2016-09-25T00:47:39.357Z,0
2016-09-25T00:48:39.026Z,0
2016-09-25T00:49:39.091Z,0
2016-09-25T00:50:39.308Z,0
2016-09-25T00:51:39.396Z,0
2016-09-25T00:52:39.585Z,0
2016-09-25T00:53:38.619Z,0
2016-09-25T00:54:38.964Z,0
2016-09-25T00:55:39.326Z,0
2016-09-25T00:56:39.538Z,0
2016-09-25T00:57:38.568Z,0
2016-09-25T00:58:39.274Z,0
2016-09-25T00:59:39.161Z,0
2016-09-25T01:00:38.837Z,0
2016-09-25T01:01:39.122Z,0
2016-09-25T01:02:38.819Z,0
2016-09-25T01:03:38.796Z,0
2016-09-25T01:04:39.147Z,0
2016-09-25T01:05:39.187Z,0
2016-09-25T01:06:38.427Z,0
2016-09-25T01:07:38.834Z,0
2016-09-25T01:08:38.705Z,0
2016-09-25T01:09:39.345Z,0
2016-09-25T01:10:38.666Z,0
2016-09-25T01:11:39.289Z,0
2016-09-25T01:12:39.035Z,0
2016-09-25T01:13:38.627Z,0
2016-09-25T01:14:38.943Z,0
2016-09-25T01:15:38.906Z,0
2016-09-25T01:16:38.567Z,0
2016-09-25T01:17:38.557Z,0
2016-09-25T01:18:39.175Z,0
2016-09-25T01:19:39.167Z,0
2016-09-25T01:20:38.192Z,0
2016-09-25T01:21:38.824Z,0
2016-09-25T01:22:39.132Z,0
2016-09-25T01:23:38.782Z,0
2016-09-25T01:24:38.146Z,0
2016-09-25T01:25:38.768Z,0
2016-09-25T01:26:38.753Z,0
2016-09-25T01:27:38.724Z,0
2016-09-25T01:28:38.393Z,0
2016-09-25T01:29:39.127Z,0
2016-09-25T01:30:39.034Z,0
2016-09-25T01:31:39.083Z,0
2016-09-25T01:32:38.691Z,0
2016-09-25T01:33:38.634Z,0
2016-09-25T01:34:38.934Z,0
2016-09-25T01:35:38.272Z,0
2016-09-25T01:36:38.243Z,0
2016-09-25T01:37:38.585Z,0
2016-09-25T01:38:38.959Z,0
2016-09-25T01:39:38.547Z,0
2016-09-25T01:40:38.516Z,0
2016-09-25T01:41:38.507Z,0
2016-09-25T01:42:38.564Z,0
2016-09-25T01:43:38.199Z,0
2016-09-25T01:44:38.123Z,0
2016-09-25T01:45:38.206Z,0
2016-09-25T01:46:38.170Z,0
2016-09-25T01:47:38.404Z,0
2016-09-25T01:48:38.387Z,0
2016-09-25T01:49:38.464Z,0
2016-09-25T01:50:38.327Z,0
2016-09-25T01:51:38.387Z,0
2016-09-25T01:52:38.326Z,0
2016-09-25T01:53:38.672Z,0
2016-09-25T01:54:38.624Z,0
2016-09-25T01:55:38.377Z,0
2016-09-25T01:56:38.265Z,0
2016-09-25T01:57:37.991Z,0
2016-09-25T01:58:38.222Z,0
2016-09-25T01:59:38.227Z,0
2016-09-25T02:00:38.251Z,0
2016-09-25T02:01:38.496Z,0
2016-09-25T02:02:38.582Z,0
2016-09-25T02:03:38.474Z,0
2016-09-25T02:04:38.543Z,0
2016-09-25T02:05:38.167Z,0
2016-09-25T02:06:38.193Z,0
2016-09-25T02:07:38.182Z,0
2016-09-25T02:08:37.736Z,0
2016-09-25T02:09:38.423Z,0
2016-09-25T02:10:37.712Z,0
2016-09-25T02:11:37.676Z,0
2016-09-25T02:12:38.353Z,0
2016-09-25T02:13:37.664Z,0
2016-09-25T02:14:37.634Z,0
2016-09-25T02:15:37.943Z,0
2016-09-25T02:16:37.274Z,0
2016-09-25T02:17:37.922Z,0
2016-09-25T02:18:37.956Z,0
2016-09-25T02:19:38.291Z,0
2016-09-25T02:20:37.856Z,0
2016-09-25T02:21:37.888Z,0
2016-09-25T02:22:37.564Z,0
2016-09-25T02:23:37.543Z,0
2016-09-25T02:24:37.784Z,0
2016-09-25T02:25:37.785Z,0
2016-09-25T02:26:38.124Z,0
2016-09-25T02:27:38.096Z,0
2016-09-25T02:28:37.724Z,0
2016-09-25T02:29:37.706Z,0
2016-09-25T02:30:37.696Z,0
2016-09-25T02:31:37.486Z,0
2016-09-25T02:32:38.028Z,0
2016-09-25T02:33:38.029Z,0
2016-09-25T02:34:37.634Z,0
2016-09-25T02:35:37.616Z,0
2016-09-25T02:36:37.915Z,0
2016-09-25T02:37:37.916Z,0
2016-09-25T02:38:37.962Z,0
2016-09-25T02:39:37.551Z,0
2016-09-25T02:40:37.843Z,0
2016-09-25T02:41:37.822Z,0
2016-09-25T02:42:37.488Z,0
2016-09-25T02:43:37.536Z,0
2016-09-25T02:44:37.776Z,0
2016-09-25T02:45:38.066Z,0
2016-09-25T02:46:37.743Z,0
2016-09-25T02:47:37.110Z,0
2016-09-25T02:48:37.723Z,0
2016-09-25T02:49:37.403Z,0
2016-09-25T02:50:37.069Z,0
2016-09-25T02:51:37.045Z,0
2016-09-25T02:52:37.641Z,0
2016-09-25T02:53:36.991Z,0
2016-09-25T02:54:37.322Z,0
2016-09-25T02:55:37.285Z,0
2016-09-25T02:56:37.573Z,0
2016-09-25T02:57:37.253Z,0
2016-09-25T02:58:37.343Z,0
2016-09-25T02:59:37.215Z,0
2016-09-25T03:00:37.525Z,0
2016-09-25T03:01:37.500Z,0
2016-09-25T03:02:36.533Z,0
2016-09-25T03:03:36.833Z,0
2016-09-25T03:04:36.165Z,0
2016-09-25T03:05:37.123Z,0
2016-09-25T03:06:37.166Z,0
2016-09-25T03:07:37.209Z,0
2016-09-25T03:08:37.053Z,0
2016-09-25T03:09:37.373Z,0
2016-09-25T03:10:37.355Z,0
2016-09-25T03:11:37.353Z,0
2016-09-25T03:12:37.311Z,0
2016-09-25T03:13:36.981Z,0
2016-09-25T03:14:36.652Z,0
2016-09-25T03:15:36.646Z,0
2016-09-25T03:16:37.272Z,0
2016-09-25T03:17:37.267Z,0
2016-09-25T03:18:36.574Z,0
2016-09-25T03:19:37.206Z,0
2016-09-25T03:20:36.901Z,0
2016-09-25T03:21:36.536Z,0
2016-09-25T03:22:36.514Z,0
2016-09-25T03:23:36.175Z,0
2016-09-25T03:24:36.502Z,0
2016-09-25T03:25:36.796Z,0
2016-09-25T03:26:36.822Z,0
2016-09-25T03:27:36.822Z,0
2016-09-25T03:28:36.409Z,0
2016-09-25T03:29:36.422Z,0
2016-09-25T03:30:36.425Z,0
2016-09-25T03:31:36.696Z,0
2016-09-25T03:32:36.693Z,0
2016-09-25T03:33:36.652Z,0
2016-09-25T03:34:36.962Z,0
2016-09-25T03:35:36.932Z,0
2016-09-25T03:36:36.614Z,0
2016-09-25T03:37:36.279Z,0
2016-09-25T03:38:36.254Z,0
2016-09-25T03:39:36.671Z,0
2016-09-25T03:40:35.892Z,0
2016-09-25T03:41:36.856Z,0
2016-09-25T03:42:36.815Z,0
2016-09-25T03:43:36.176Z,0
2016-09-25T03:44:36.788Z,0
2016-09-25T03:45:36.594Z,0
2016-09-25T03:46:36.813Z,0
2016-09-25T03:47:36.101Z,0
2016-09-25T03:48:36.409Z,0
2016-09-25T03:49:36.814Z,0
2016-09-25T03:50:36.683Z,0
2016-09-25T03:51:36.361Z,0
2016-09-25T03:52:36.332Z,0
2016-09-25T03:53:36.334Z,0
2016-09-25T03:54:36.309Z,0
2016-09-25T03:55:36.305Z,0
2016-09-25T03:56:36.285Z,0
2016-09-25T03:57:35.931Z,0
2016-09-25T03:58:35.925Z,0
2016-09-25T03:59:36.222Z,0
2016-09-25T04:00:35.931Z,0
2016-09-25T04:01:36.201Z,0
2016-09-25T04:02:35.528Z,0
2016-09-25T04:03:35.842Z,0
2016-09-25T04:04:36.143Z,0
2016-09-25T04:05:35.793Z,0
2016-09-25T04:06:36.103Z,0
2016-09-25T04:07:36.401Z,0
2016-09-25T04:08:35.754Z,0
2016-09-25T04:09:36.060Z,0
2016-09-25T04:10:36.353Z,0
2016-09-25T04:11:35.739Z,0
2016-09-25T04:12:36.354Z,0
2016-09-25T04:13:36.464Z,0
2016-09-25T04:14:35.754Z,0
2016-09-25T04:15:36.064Z,0
2016-09-25T04:16:35.941Z,0
2016-09-25T04:17:35.924Z,0
2016-09-25T04:18:35.582Z,0
2016-09-25T04:19:35.541Z,0
2016-09-25T04:20:35.542Z,0
2016-09-25T04:21:36.163Z,0
2016-09-25T04:22:35.524Z,0
2016-09-25T04:23:35.476Z,0
2016-09-25T04:24:36.134Z,0
2016-09-25T04:25:36.110Z,0
2016-09-25T04:26:35.760Z,0
2016-09-25T04:27:36.212Z,0
2016-09-25T04:28:35.723Z,0
2016-09-25T04:29:35.704Z,0
2016-09-25T04:30:35.689Z,0
2016-09-25T04:31:35.670Z,0
2016-09-25T04:32:35.681Z,0
2016-09-25T04:33:35.393Z,0
2016-09-25T04:34:35.305Z,0
2016-09-25T04:35:35.624Z,0
2016-09-25T04:36:35.997Z,0
2016-09-25T04:37:34.961Z,0
2016-09-25T04:38:35.235Z,0
2016-09-25T04:39:35.264Z,0
2016-09-25T04:40:35.521Z,0
2016-09-25T04:41:35.531Z,0
2016-09-25T04:42:35.260Z,0
2016-09-25T04:43:35.473Z,0
2016-09-25T04:44:35.780Z,0
2016-09-25T04:45:35.836Z,0
2016-09-25T04:46:35.756Z,0
2016-09-25T04:47:35.796Z,0
2016-09-25T04:48:35.070Z,0
2016-09-25T04:49:34.724Z,0
2016-09-25T04:50:35.036Z,0
2016-09-25T04:51:35.726Z,0
2016-09-25T04:52:35.645Z,0
2016-09-25T04:53:34.993Z,0
2016-09-25T04:54:35.278Z,0
2016-09-25T04:55:35.590Z,0
2016-09-25T04:56:35.586Z,0
2016-09-25T04:57:35.236Z,0
2016-09-25T04:58:35.238Z,0
2016-09-25T04:59:35.558Z,0
2016-09-25T05:00:35.506Z,0
2016-09-25T05:01:34.502Z,0
2016-09-25T05:02:35.161Z,0
2016-09-25T05:03:35.477Z,0
2016-09-25T05:04:35.480Z,0
2016-09-25T05:05:35.405Z,0
2016-09-25T05:06:35.426Z,0
2016-09-25T05:07:34.412Z,0
2016-09-25T05:08:35.045Z,0
2016-09-25T05:09:35.023Z,0
2016-09-25T05:10:35.005Z,0
2016-09-25T05:11:35.366Z,0
2016-09-25T05:12:35.357Z,0
2016-09-25T05:13:35.325Z,0
2016-09-25T05:14:34.286Z,0
2016-09-25T05:15:34.593Z,0
2016-09-25T05:16:35.168Z,0
2016-09-25T05:17:34.877Z,0
2016-09-25T05:18:34.549Z,0
2016-09-25T05:19:35.156Z,0
2016-09-25T05:20:34.825Z,0
2016-09-25T05:21:34.841Z,0
2016-09-25T05:22:34.482Z,5
2016-09-25T05:23:35.193Z,5
2016-09-25T05:24:35.078Z,5
2016-09-25T05:25:34.740Z,5
2016-09-25T05:26:34.085Z,5
2016-09-25T05:27:35.043Z,5
2016-09-25T05:28:34.696Z,5
2016-09-25T05:29:35.003Z,5
2016-09-25T05:30:35.027Z,10
2016-09-25T05:31:34.985Z,10
2016-09-25T05:32:34.977Z,10
2016-09-25T05:33:34.932Z,10
2016-09-25T05:34:34.960Z,10
2016-09-25T05:35:34.241Z,10
2016-09-25T05:36:34.276Z,15
2016-09-25T05:37:34.546Z,15
2016-09-25T05:38:34.595Z,15
2016-09-25T05:39:33.863Z,15
2016-09-25T05:40:34.533Z,15
2016-09-25T05:41:34.478Z,20
2016-09-25T05:42:33.916Z,20
2016-09-25T05:43:34.428Z,20
2016-09-25T05:44:34.138Z,20
2016-09-25T05:45:34.391Z,20
2016-09-25T05:46:34.792Z,25
2016-09-25T05:47:34.364Z,25
2016-09-25T05:48:34.674Z,25
2016-09-25T05:49:34.662Z,25
2016-09-25T05:50:33.998Z,25
2016-09-25T05:51:34.605Z,30
2016-09-25T05:52:34.371Z,30
2016-09-25T05:53:34.268Z,30
2016-09-25T05:54:34.657Z,30
2016-09-25T05:55:33.967Z,30
2016-09-25T05:56:34.625Z,35
2016-09-25T05:57:34.244Z,35
2016-09-25T05:58:34.179Z,35
2016-09-25T05:59:33.518Z,35
2016-09-25T06:00:34.474Z,40
2016-09-25T06:01:34.436Z,40
2016-09-25T06:02:34.108Z,40
2016-09-25T06:03:33.766Z,40
2016-09-25T06:04:34.119Z,45
2016-09-25T06:05:34.290Z,45
2016-09-25T06:06:34.105Z,45
2016-09-25T06:07:34.012Z,45
2016-09-25T06:08:34.052Z,50
2016-09-25T06:09:34.048Z,50
2016-09-25T06:10:33.977Z,50
2016-09-25T06:11:33.365Z,50
2016-09-25T06:12:33.992Z,55
2016-09-25T06:13:33.597Z,55
2016-09-25T06:14:33.905Z,55
2016-09-25T06:15:33.906Z,55
2016-09-25T06:16:33.252Z,60
2016-09-25T06:17:34.178Z,60
2016-09-25T06:18:33.524Z,60
2016-09-25T06:19:34.164Z,65
2016-09-25T06:20:33.145Z,65
2016-09-25T06:21:33.875Z,65
2016-09-25T06:22:33.497Z,70
2016-09-25T06:23:34.064Z,70
2016-09-25T06:24:33.123Z,75
2016-09-25T06:25:33.715Z,75
2016-09-25T06:26:33.693Z,70
2016-09-25T06:27:33.357Z,80
2016-09-25T06:28:33.668Z,75
2016-09-25T06:29:33.653Z,80
2016-09-25T06:30:33.310Z,80
2016-09-25T06:31:33.284Z,80
2016-09-25T06:32:33.908Z,85
2016-09-25T06:33:33.974Z,85
2016-09-25T06:34:33.864Z,90
2016-09-25T06:35:33.545Z,95
2016-09-25T06:36:33.526Z,95
2016-09-25T06:37:33.828Z,120
2016-09-25T06:38:33.227Z,150
2016-09-25T06:39:33.155Z,115
2016-09-25T06:40:33.125Z,115
2016-09-25T06:41:33.437Z,125
2016-09-25T06:42:33.754Z,380
2016-09-25T06:43:33.466Z,810
2016-09-25T06:44:33.718Z,935
2016-09-25T06:45:33.704Z,975
2016-09-25T06:46:33.038Z,965
2016-09-25T06:47:33.037Z,945
2016-09-25T06:48:33.348Z,965
2016-09-25T06:49:33.008Z,1010
2016-09-25T06:50:33.631Z,1035
2016-09-25T06:51:33.392Z,1035
2016-09-25T06:52:32.985Z,1040
2016-09-25T06:53:33.587Z,1070
2016-09-25T06:54:33.253Z,1080
2016-09-25T06:55:33.269Z,1030
2016-09-25T06:56:32.908Z,980
2016-09-25T06:57:32.984Z,1040
2016-09-25T06:58:33.515Z,1095
2016-09-25T06:59:32.926Z,1130
2016-09-25T07:00:33.492Z,1130
2016-09-25T07:01:33.492Z,1125
2016-09-25T07:02:33.204Z,1105
2016-09-25T07:03:32.868Z,1110
2016-09-25T07:04:33.544Z,1145
2016-09-25T07:05:33.155Z,1180
2016-09-25T07:06:33.519Z,1180
2016-09-25T07:07:33.427Z,1185
2016-09-25T07:08:33.145Z,845
2016-09-25T07:09:32.804Z,285
2016-09-25T07:10:33.092Z,160
2016-09-25T07:11:33.367Z,165
2016-09-25T07:12:33.076Z,160
2016-09-25T07:13:32.696Z,155
2016-09-25T07:14:33.369Z,150
2016-09-25T07:15:33.313Z,145
2016-09-25T07:16:32.663Z,145
2016-09-25T07:17:32.974Z,150
2016-09-25T07:18:32.640Z,160
2016-09-25T07:19:32.626Z,170
2016-09-25T07:20:32.958Z,175
2016-09-25T07:21:32.940Z,185
2016-09-25T07:22:32.919Z,185
2016-09-25T07:23:32.961Z,190
2016-09-25T07:24:32.891Z,190
2016-09-25T07:25:33.220Z,190
2016-09-25T07:26:32.566Z,190
2016-09-25T07:27:32.850Z,190
2016-09-25T07:28:32.839Z,195
2016-09-25T07:29:32.830Z,195
2016-09-25T07:30:33.240Z,200
2016-09-25T07:31:32.488Z,205
2016-09-25T07:32:33.126Z,205
2016-09-25T07:33:32.477Z,210
2016-09-25T07:34:33.106Z,220
2016-09-25T07:35:32.788Z,215
2016-09-25T07:36:33.079Z,220
2016-09-25T07:37:32.747Z,225
2016-09-25T07:38:32.098Z,235
2016-09-25T07:39:32.444Z,335
2016-09-25T07:40:32.472Z,685
2016-09-25T07:41:32.731Z,1000
2016-09-25T07:42:32.831Z,1090
2016-09-25T07:43:33.065Z,1115
2016-09-25T07:44:33.040Z,1220
2016-09-25T07:45:33.014Z,1210
2016-09-25T07:46:32.357Z,1165
2016-09-25T07:47:32.697Z,1240
2016-09-25T07:48:32.737Z,1355
2016-09-25T07:49:32.706Z,1510
2016-09-25T07:50:32.349Z,1555
2016-09-25T07:51:32.990Z,1590
2016-09-25T07:52:32.659Z,1615
2016-09-25T07:53:32.629Z,1595
2016-09-25T07:54:32.950Z,1525
2016-09-25T07:55:32.750Z,1460
2016-09-25T07:56:32.950Z,1500
2016-09-25T07:57:32.615Z,1615
2016-09-25T07:58:32.287Z,1705
2016-09-25T07:59:32.613Z,1660
2016-09-25T08:00:31.969Z,1585
2016-09-25T08:01:31.956Z,1555
2016-09-25T08:02:31.957Z,1525
2016-09-25T08:03:32.598Z,1555
2016-09-25T08:04:32.989Z,1595
2016-09-25T08:05:32.562Z,1585
2016-09-25T08:06:32.670Z,1570
2016-09-25T08:07:32.246Z,1535
2016-09-25T08:08:32.886Z,1480
2016-09-25T08:09:32.577Z,1540
2016-09-25T08:10:32.639Z,1650
2016-09-25T08:11:32.878Z,1630
2016-09-25T08:12:31.926Z,1595
2016-09-25T08:13:31.925Z,1650
2016-09-25T08:14:32.279Z,1655
2016-09-25T08:15:32.229Z,1570
2016-09-25T08:16:32.549Z,1565
2016-09-25T08:17:32.219Z,1590
2016-09-25T08:18:32.222Z,1590
2016-09-25T08:19:31.907Z,1520
2016-09-25T08:20:32.213Z,1490
2016-09-25T08:21:32.517Z,1580
2016-09-25T08:22:32.838Z,1625
2016-09-25T08:23:32.546Z,1595
2016-09-25T08:24:32.214Z,1600
2016-09-25T08:25:32.556Z,1615
2016-09-25T08:26:32.835Z,1580
2016-09-25T08:27:32.194Z,1585
2016-09-25T08:28:32.511Z,1660
2016-09-25T08:29:32.199Z,1610
2016-09-25T08:30:32.198Z,1535
2016-09-25T08:31:32.505Z,1600
2016-09-25T08:32:32.194Z,1635
2016-09-25T08:33:32.179Z,1610
2016-09-25T08:34:32.498Z,1595
2016-09-25T08:35:31.875Z,1625
2016-09-25T08:36:32.536Z,1610
2016-09-25T08:37:32.865Z,1620
2016-09-25T08:38:32.180Z,1650
2016-09-25T08:39:32.504Z,1605
2016-09-25T08:40:32.489Z,1590
2016-09-25T08:41:32.855Z,1650
2016-09-25T08:42:32.481Z,1640
2016-09-25T08:43:32.475Z,1635
2016-09-25T08:44:32.476Z,1575
2016-09-25T08:45:32.484Z,1700
2016-09-25T08:46:32.159Z,2065
2016-09-25T08:47:32.799Z,1895
2016-09-25T08:48:32.795Z,1550
2016-09-25T08:49:31.827Z,1725
2016-09-25T08:50:32.806Z,1820
2016-09-25T08:51:32.468Z,1705
2016-09-25T08:52:32.487Z,1620
2016-09-25T08:53:32.894Z,1570
2016-09-25T08:54:32.166Z,1630
2016-09-25T08:55:32.170Z,1620
2016-09-25T08:56:32.226Z,1560
2016-09-25T08:57:32.447Z,1630
2016-09-25T08:58:32.138Z,1680
2016-09-25T08:59:32.119Z,1545
2016-09-25T09:00:32.136Z,1475
2016-09-25T09:01:32.130Z,1480
2016-09-25T09:02:32.445Z,1515
2016-09-25T09:03:31.506Z,1595
2016-09-25T09:04:32.171Z,1695
2016-09-25T09:05:32.136Z,1740
2016-09-25T09:06:32.440Z,1580
2016-09-25T09:07:32.440Z,1535
2016-09-25T09:08:32.454Z,1570
2016-09-25T09:09:32.426Z,1585
2016-09-25T09:10:31.795Z,1565
2016-09-25T09:11:32.785Z,1490
2016-09-25T09:12:32.421Z,1585
2016-09-25T09:13:32.098Z,1495
2016-09-25T09:14:32.861Z,1515
2016-09-25T09:15:32.105Z,1565
2016-09-25T09:16:31.794Z,1495
2016-09-25T09:17:32.117Z,1440
2016-09-25T09:18:32.470Z,1440
2016-09-25T09:19:31.789Z,1530
2016-09-25T09:20:32.548Z,1520
2016-09-25T09:21:32.475Z,1135
2016-09-25T09:22:32.086Z,1450
2016-09-25T09:23:32.095Z,1465
2016-09-25T09:24:32.086Z,1420
2016-09-25T09:25:32.428Z,1465
2016-09-25T09:26:32.386Z,1485
2016-09-25T09:27:32.407Z,1445
2016-09-25T09:28:32.393Z,1435
2016-09-25T09:29:32.507Z,1500
2016-09-25T09:30:32.077Z,1495
2016-09-25T09:31:32.119Z,1355
2016-09-25T09:32:32.439Z,1235
2016-09-25T09:33:32.787Z,1305
2016-09-25T09:34:32.399Z,1380
2016-09-25T09:35:32.434Z,1365
2016-09-25T09:36:32.079Z,1350
2016-09-25T09:37:32.716Z,1380
2016-09-25T09:38:32.079Z,1310
2016-09-25T09:39:32.436Z,1275
2016-09-25T09:40:31.432Z,1305
2016-09-25T09:41:31.426Z,1305
2016-09-25T09:42:32.279Z,1330
2016-09-25T09:43:31.741Z,1310
2016-09-25T09:44:32.406Z,1200
2016-09-25T09:45:32.387Z,1265
2016-09-25T09:46:32.045Z,1310
2016-09-25T09:47:32.381Z,1340
2016-09-25T09:48:32.157Z,1245
2016-09-25T09:49:32.365Z,1165
2016-09-25T09:50:32.099Z,1260
2016-09-25T09:51:31.731Z,1205
2016-09-25T09:52:32.380Z,1140
2016-09-25T09:53:32.349Z,1275
2016-09-25T09:54:32.339Z,1215
2016-09-25T09:55:32.040Z,1230
2016-09-25T09:56:32.336Z,1245
2016-09-25T09:57:31.705Z,1170
2016-09-25T09:58:32.416Z,1185
2016-09-25T09:59:32.350Z,1155
2016-09-25T10:00:32.020Z,1115
2016-09-25T10:01:32.005Z,1165
2016-09-25T10:02:32.345Z,1120
2016-09-25T10:03:32.331Z,1075
2016-09-25T10:04:32.656Z,1040
2016-09-25T10:05:31.987Z,1065
2016-09-25T10:06:32.652Z,1080
2016-09-25T10:07:32.328Z,1110
2016-09-25T10:08:32.043Z,1095
2016-09-25T10:09:32.648Z,1090
2016-09-25T10:10:32.636Z,1085
2016-09-25T10:11:31.704Z,1010
2016-09-25T10:12:32.596Z,995
2016-09-25T10:13:32.300Z,1005
2016-09-25T10:14:31.638Z,995
2016-09-25T10:15:31.970Z,965
2016-09-25T10:16:32.287Z,990
2016-09-25T10:17:32.270Z,990
2016-09-25T10:18:32.356Z,1025
2016-09-25T10:19:32.266Z,1015
2016-09-25T10:20:32.274Z,940
2016-09-25T10:21:32.272Z,950
2016-09-25T10:22:32.269Z,950
2016-09-25T10:23:31.667Z,980
2016-09-25T10:24:31.386Z,935
2016-09-25T10:25:32.621Z,930
2016-09-25T10:26:32.241Z,900
2016-09-25T10:27:32.036Z,925
2016-09-25T10:28:32.236Z,930
2016-09-25T10:29:32.342Z,910
2016-09-25T10:30:32.649Z,870
2016-09-25T10:31:32.210Z,860
2016-09-25T10:32:32.218Z,810
2016-09-25T10:33:31.906Z,795
2016-09-25T10:34:32.217Z,770
2016-09-25T10:35:32.264Z,680
2016-09-25T10:36:32.205Z,555
2016-09-25T10:37:32.262Z,415
2016-09-25T10:38:32.261Z,345
2016-09-25T10:39:31.325Z,330
2016-09-25T10:40:32.176Z,330
2016-09-25T10:41:32.186Z,325
2016-09-25T10:42:31.536Z,325
2016-09-25T10:43:32.184Z,320
2016-09-25T10:44:32.519Z,320
2016-09-25T10:45:31.890Z,320
2016-09-25T10:46:31.835Z,315
2016-09-25T10:47:31.835Z,315
2016-09-25T10:48:31.915Z,315
2016-09-25T10:49:31.834Z,315
2016-09-25T10:50:32.131Z,315
2016-09-25T10:51:32.132Z,310
2016-09-25T10:52:32.126Z,305
2016-09-25T10:53:32.143Z,300
2016-09-25T10:54:32.165Z,295
2016-09-25T10:55:32.126Z,285
2016-09-25T10:56:32.499Z,280
2016-09-25T10:57:32.146Z,280
2016-09-25T10:58:32.421Z,280
2016-09-25T10:59:32.444Z,280
2016-09-25T11:00:32.423Z,280
2016-09-25T11:01:32.099Z,280
2016-09-25T11:02:32.117Z,285
2016-09-25T11:03:31.432Z,280
2016-09-25T11:04:32.436Z,280
2016-09-25T11:05:31.778Z,280
2016-09-25T11:06:32.086Z,280
2016-09-25T11:07:32.055Z,280
2016-09-25T11:08:32.365Z,280
2016-09-25T11:09:32.085Z,280
2016-09-25T11:10:32.124Z,280
2016-09-25T11:11:32.087Z,275
2016-09-25T11:12:32.030Z,275
2016-09-25T11:13:32.029Z,275
2016-09-25T11:14:32.060Z,275
2016-09-25T11:15:32.013Z,275
2016-09-25T11:16:32.328Z,275
2016-09-25T11:17:32.001Z,275
2016-09-25T11:18:31.740Z,275
2016-09-25T11:19:32.316Z,275
2016-09-25T11:20:31.703Z,275
2016-09-25T11:21:31.658Z,275
2016-09-25T11:22:31.707Z,275
2016-09-25T11:23:31.644Z,275
2016-09-25T11:24:31.637Z,280
2016-09-25T11:25:31.956Z,275
2016-09-25T11:26:31.635Z,275
2016-09-25T11:27:32.255Z,275
2016-09-25T11:28:31.919Z,275
2016-09-25T11:29:31.906Z,275
2016-09-25T11:30:31.596Z,275
2016-09-25T11:31:31.587Z,275
2016-09-25T11:32:31.940Z,275
2016-09-25T11:33:31.596Z,275
2016-09-25T11:34:31.949Z,275
2016-09-25T11:35:32.219Z,275
2016-09-25T11:36:31.645Z,275
2016-09-25T11:37:31.884Z,275
2016-09-25T11:38:31.972Z,275
2016-09-25T11:39:31.564Z,275
2016-09-25T11:40:31.616Z,275
2016-09-25T11:41:32.230Z,270
2016-09-25T11:42:31.875Z,275
2016-09-25T11:43:31.526Z,275
2016-09-25T11:44:32.255Z,275
2016-09-25T11:45:31.894Z,275
2016-09-25T11:46:31.856Z,275
2016-09-25T11:47:31.500Z,275
2016-09-25T11:48:32.165Z,275
2016-09-25T11:49:32.135Z,275
2016-09-25T11:50:32.135Z,275
2016-09-25T11:51:31.817Z,275
2016-09-25T11:52:31.549Z,275
2016-09-25T11:53:31.870Z,275
2016-09-25T11:54:32.125Z,275
2016-09-25T11:55:32.119Z,275
2016-09-25T11:56:31.455Z,275
2016-09-25T11:57:31.487Z,275
2016-09-25T11:58:31.255Z,275
2016-09-25T11:59:31.446Z,275
2016-09-25T12:00:31.777Z,270
2016-09-25T12:01:31.814Z,270
2016-09-25T12:02:31.415Z,270
2016-09-25T12:03:31.106Z,270
2016-09-25T12:04:31.727Z,275
2016-09-25T12:05:31.490Z,275
2016-09-25T12:06:31.456Z,270
2016-09-25T12:07:32.046Z,270
2016-09-25T12:08:31.095Z,270
2016-09-25T12:09:31.419Z,270
2016-09-25T12:10:31.389Z,270
2016-09-25T12:11:31.445Z,270
2016-09-25T12:12:31.106Z,270
2016-09-25T12:13:31.695Z,270
2016-09-25T12:14:32.076Z,270
2016-09-25T12:15:31.394Z,270
2016-09-25T12:16:31.675Z,275
2016-09-25T12:17:32.009Z,270
2016-09-25T12:18:31.689Z,270
2016-09-25T12:19:32.013Z,270
2016-09-25T12:20:32.006Z,270
2016-09-25T12:21:31.969Z,270
2016-09-25T12:22:31.653Z,270
2016-09-25T12:23:31.645Z,270
2016-09-25T12:24:31.980Z,270
2016-09-25T12:25:32.007Z,270
2016-09-25T12:26:31.312Z,270
2016-09-25T12:27:31.952Z,270
2016-09-25T12:28:31.625Z,270
2016-09-25T12:29:30.659Z,270
2016-09-25T12:30:31.624Z,270
2016-09-25T12:31:31.308Z,275
2016-09-25T12:32:31.040Z,245
2016-09-25T12:33:31.925Z,270
2016-09-25T12:34:31.624Z,270
2016-09-25T12:35:31.707Z,265
2016-09-25T12:36:31.265Z,270
2016-09-25T12:37:31.252Z,265
2016-09-25T12:38:31.574Z,270
2016-09-25T12:39:31.279Z,265
2016-09-25T12:40:31.556Z,265
2016-09-25T12:41:31.886Z,265
2016-09-25T12:42:30.924Z,265
2016-09-25T12:43:31.224Z,265
2016-09-25T12:44:31.666Z,265
2016-09-25T12:45:31.554Z,265
2016-09-25T12:46:31.645Z,265
2016-09-25T12:47:31.535Z,265
2016-09-25T12:48:31.859Z,265
2016-09-25T12:49:31.857Z,265
2016-09-25T12:50:31.506Z,260
2016-09-25T12:51:30.872Z,265
2016-09-25T12:52:31.481Z,265
2016-09-25T12:53:31.185Z,265
2016-09-25T12:54:31.809Z,260
2016-09-25T12:55:31.795Z,265
2016-09-25T12:56:31.163Z,260
2016-09-25T12:57:31.473Z,265
2016-09-25T12:58:31.131Z,260
2016-09-25T12:59:31.151Z,260
2016-09-25T13:00:31.557Z,260
2016-09-25T13:01:31.114Z,260
2016-09-25T13:02:31.768Z,260
2016-09-25T13:03:31.473Z,255
2016-09-25T13:04:31.435Z,255
2016-09-25T13:05:31.734Z,245
2016-09-25T13:06:31.100Z,250
2016-09-25T13:07:31.495Z,250
2016-09-25T13:08:31.742Z,255
2016-09-25T13:09:30.769Z,255
2016-09-25T13:10:31.706Z,250
2016-09-25T13:11:30.782Z,250
2016-09-25T13:12:31.064Z,255
2016-09-25T13:13:31.047Z,250
2016-09-25T13:14:31.354Z,255
2016-09-25T13:15:31.365Z,250
2016-09-25T13:16:31.362Z,255
2016-09-25T13:17:30.723Z,255
2016-09-25T13:18:31.036Z,250
2016-09-25T13:19:31.415Z,245
2016-09-25T13:20:31.011Z,215
2016-09-25T13:21:30.711Z,210
2016-09-25T13:22:31.349Z,245
2016-09-25T13:23:31.325Z,245
2016-09-25T13:24:31.664Z,245
2016-09-25T13:25:30.989Z,250
2016-09-25T13:26:31.304Z,250
2016-09-25T13:27:31.312Z,250
2016-09-25T13:28:31.281Z,245
2016-09-25T13:29:31.301Z,245
2016-09-25T13:30:31.655Z,245
2016-09-25T13:31:30.317Z,250
2016-09-25T13:32:31.269Z,250
2016-09-25T13:33:31.266Z,245
2016-09-25T13:34:31.573Z,245
2016-09-25T13:35:30.959Z,245
2016-09-25T13:36:31.263Z,245
2016-09-25T13:37:31.013Z,245
2016-09-25T13:38:31.561Z,245
2016-09-25T13:39:30.588Z,245
2016-09-25T13:40:31.551Z,245
2016-09-25T13:41:31.232Z,245
2016-09-25T13:42:31.301Z,245
2016-09-25T13:43:30.882Z,245
2016-09-25T13:44:30.892Z,245
2016-09-25T13:45:31.204Z,245
2016-09-25T13:46:31.192Z,240
2016-09-25T13:47:31.512Z,240
2016-09-25T13:48:31.508Z,240
2016-09-25T13:49:30.539Z,230
2016-09-25T13:50:30.849Z,235
2016-09-25T13:51:31.179Z,235
2016-09-25T13:52:31.478Z,220
2016-09-25T13:53:31.181Z,230
2016-09-25T13:54:30.848Z,230
2016-09-25T13:55:31.163Z,230
2016-09-25T13:56:30.500Z,230
2016-09-25T13:57:31.191Z,230
2016-09-25T13:58:31.146Z,230
2016-09-25T13:59:31.147Z,230
2016-09-25T14:00:30.829Z,230
2016-09-25T14:01:31.222Z,225
2016-09-25T14:02:31.464Z,225
2016-09-25T14:03:31.098Z,225
2016-09-25T14:04:31.116Z,225
2016-09-25T14:05:30.461Z,225